Terminal Aerodrome Forecast
Issued by NWS Charleston, WV

Home | Current Version | Previous Version | Text Only | Print | Product List | Glossary On
Versions: 1 2 3 4 5 6 7 8 9 10 11 12 13 14 15 16 17 18 19 20 21
264
FTUS41 KRLX 271724
TAFBKW
TAF
KBKW 271724Z 2718/2818 23005KT P6SM BKN050
     FM271900 20006KT P6SM VCTS BKN045CB
     FM280000 15004KT P6SM BKN080
     FM280200 VRB03KT P6SM SCT110
     FM281700 18004KT P6SM BKN080=

USA.gov is the U.S. government's official web portal to all federal, state and local government web resources and services.